Time;durP1;ratioP1;P1;durP2;ratioP2;P2;SDS_P1;SDS_P2;PMS_P1;PMS_P2;Temp;Humidity;BMP_temperature;BMP_pressure;BME280_temperature;BME280_humidity;BME280_pressure;Samples;Min_cycle;Max_cycle;Signal;HPM_P1;HPM_P2
2022/07/17 00:01:08;;;;;;;0.00;0.00;;;;;;;18.54;53.24;102851.06;5060722;28;20043;-81
2022/07/17 00:03:34;;;;;;;0.20;0.20;;;;;;;18.52;53.61;102852.88;5064612;28;20077;-81
2022/07/17 00:06:01;;;;;;;0.63;0.63;;;;;;;18.51;53.67;102860.97;5061658;28;20425;-81
2022/07/17 00:08:27;;;;;;;0.00;0.00;;;;;;;18.49;54.32;102857.41;5066118;28;20033;-81
2022/07/17 00:10:53;;;;;;;0.00;0.00;;;;;;;18.48;54.03;102855.66;5057761;28;20025;-80
2022/07/17 00:13:19;;;;;;;0.00;0.00;;;;;;;18.47;54.77;102848.50;5059510;28;20024;-82
2022/07/17 00:15:46;;;;;;;0.00;0.00;;;;;;;18.47;54.01;102848.50;5063060;28;20099;-83
2022/07/17 00:18:12;;;;;;;0.08;0.08;;;;;;;18.45;53.95;102847.66;5066565;28;20033;-83
2022/07/17 00:20:38;;;;;;;0.00;0.00;;;;;;;18.43;54.17;102858.44;5060942;28;20040;-81
2022/07/17 00:23:04;;;;;;;0.00;0.00;;;;;;;18.43;53.87;102853.09;5060052;28;20101;-81
2022/07/17 00:25:32;;;;;;;0.00;0.00;;;;;;;18.42;53.96;102851.31;5061784;28;20040;-82
2022/07/17 00:27:58;;;;;;;0.03;0.03;;;;;;;18.41;54.42;102854.91;5061217;28;20075;-83
2022/07/17 00:30:24;;;;;;;0.00;0.00;;;;;;;18.40;54.38;102859.38;5062416;28;20256;-81
2022/07/17 00:32:50;;;;;;;0.10;0.10;;;;;;;18.37;54.03;102847.84;5061333;28;20025;-82
2022/07/17 00:35:17;;;;;;;0.00;0.00;;;;;;;18.35;54.40;102846.97;5066088;28;20042;-80
2022/07/17 00:37:46;;;;;;;0.00;0.00;;;;;;;18.33;54.04;102855.06;5063352;28;20390;-81
2022/07/17 00:40:16;;;;;;;0.00;0.00;;;;;;;18.31;54.52;102843.47;5066755;28;20131;-82
2022/07/17 00:42:43;;;;;;;0.10;0.10;;;;;;;18.29;54.37;102844.41;5064360;28;20032;-82
2022/07/17 00:45:10;;;;;;;0.00;0.00;;;;;;;18.26;54.41;102840.88;5058341;28;20024;-84
2022/07/17 00:47:58;;;;;;;0.00;0.00;;;;;;;18.32;54.28;102845.25;5067527;28;20375;-82
2022/07/17 00:50:28;;;;;;;0.10;0.10;;;;;;;18.27;55.11;102844.47;5062191;28;20395;-83
2022/07/17 00:52:55;;;;;;;0.10;0.10;;;;;;;18.27;54.77;102836.41;5064571;28;20387;-81
2022/07/17 00:55:23;;;;;;;0.10;0.10;;;;;;;18.25;54.26;102839.09;5066635;28;20041;-81
2022/07/17 00:57:51;;;;;;;0.00;0.00;;;;;;;18.21;54.90;102839.22;5064452;28;20032;-82
2022/07/17 01:00:18;;;;;;;0.35;0.25;;;;;;;18.19;54.79;102838.34;5062043;28;20029;-81
2022/07/17 01:02:47;;;;;;;0.00;0.00;;;;;;;18.19;54.67;102838.34;5063704;28;20112;-81
2022/07/17 01:05:15;;;;;;;0.00;0.00;;;;;;;18.17;54.55;102834.81;5064114;28;20033;-81
2022/07/17 01:07:41;;;;;;;0.00;0.00;;;;;;;18.15;55.11;102833.97;5068437;28;20032;-80
2022/07/17 01:10:08;;;;;;;0.00;0.00;;;;;;;18.15;54.60;102825.94;5070615;28;20063;-81
2022/07/17 01:12:34;;;;;;;0.00;0.00;;;;;;;18.11;54.76;102820.59;5066590;28;20047;-82
2022/07/17 01:15:02;;;;;;;0.00;0.00;;;;;;;18.10;54.52;102817.97;5062684;28;20036;-81
2022/07/17 01:17:29;;;;;;;0.10;0.10;;;;;;;18.06;54.91;102805.53;5063137;28;20033;-82
2022/07/17 01:19:55;;;;;;;0.00;0.00;;;;;;;18.03;55.08;102806.47;5064413;28;20456;-81
2022/07/17 01:22:21;;;;;;;0.00;0.00;;;;;;;18.01;55.05;102808.31;5062921;28;20028;-81
2022/07/17 01:24:47;;;;;;;0.00;0.00;;;;;;;17.99;55.53;102811.94;5060824;28;20048;-81
2022/07/17 01:27:15;;;;;;;0.00;0.00;;;;;;;17.97;55.38;102811.06;5065048;28;20029;-82
2022/07/17 01:29:41;;;;;;;0.00;0.00;;;;;;;17.95;55.30;102822.69;5068008;28;20032;-82
2022/07/17 01:32:07;;;;;;;0.00;0.00;;;;;;;17.92;55.16;102828.09;5065652;28;20367;-83
2022/07/17 01:34:33;;;;;;;0.00;0.00;;;;;;;17.89;55.41;102830.84;5061786;28;20053;-82
2022/07/17 01:37:00;;;;;;;0.00;0.00;;;;;;;17.87;55.89;102824.63;5068628;28;20675;-81
2022/07/17 01:39:57;;;;;;;0.00;0.00;;;;;;;17.84;55.56;102823.81;5069998;28;20728;-81
2022/07/17 01:42:12;;;;;;;0.00;0.00;;;;;;;17.82;55.83;102818.47;5064704;28;20033;-81
2022/07/17 01:44:38;;;;;;;0.00;0.00;;;;;;;17.82;55.67;102820.25;5060681;28;20141;-82
2022/07/17 01:47:04;;;;;;;0.00;0.00;;;;;;;17.81;55.87;102826.53;5063970;28;20037;-82
2022/07/17 01:49:31;;;;;;;0.08;0.08;;;;;;;17.78;55.81;102817.66;5059671;28;20091;-82
2022/07/17 01:51:59;;;;;;;0.00;0.00;;;;;;;17.76;55.78;102813.22;5067592;28;20047;-82
2022/07/17 01:54:26;;;;;;;0.10;0.10;;;;;;;17.73;56.25;102806.13;5073726;28;20027;-83
2022/07/17 01:56:53;;;;;;;0.00;0.00;;;;;;;17.68;56.30;102805.31;5067277;28;20060;-82
2022/07/17 01:59:19;;;;;;;0.00;0.00;;;;;;;17.64;56.30;102814.31;5069332;28;20529;-82
2022/07/17 02:01:45;;;;;;;0.00;0.00;;;;;;;17.63;56.51;102815.22;5062822;28;20041;-81
2022/07/17 02:04:11;;;;;;;0.00;0.00;;;;;;;17.62;56.56;102814.38;5066316;28;20028;-82
2022/07/17 02:06:38;;;;;;;0.10;0.10;;;;;;;17.62;56.32;102810.81;5068301;28;20032;-81
2022/07/17 02:09:04;;;;;;;0.00;0.00;;;;;;;17.60;56.82;102813.50;5068051;28;20063;-81
2022/07/17 02:11:30;;;;;;;0.17;0.17;;;;;;;17.60;56.43;102818.84;5070921;28;20444;-81
2022/07/17 02:13:56;;;;;;;0.00;0.00;;;;;;;17.63;56.49;102817.91;5067542;28;20036;-80
2022/07/17 02:16:22;;;;;;;0.10;0.10;;;;;;;17.63;56.43;102817.91;5069933;28;20032;-82
2022/07/17 02:18:48;;;;;;;0.10;0.10;;;;;;;17.63;56.41;102820.59;5063254;28;20074;-83
2022/07/17 02:21:15;;;;;;;0.10;0.10;;;;;;;17.64;56.27;102814.31;5059658;28;20041;-83
2022/07/17 02:23:41;;;;;;;0.03;0.03;;;;;;;17.63;56.59;102812.56;5063763;28;20662;-82
2022/07/17 02:26:10;;;;;;;0.00;0.00;;;;;;;17.62;56.59;102816.19;5066023;28;20124;-82
2022/07/17 02:28:36;;;;;;;0.00;0.00;;;;;;;17.58;56.66;102814.44;5069454;28;20036;-83
2022/07/17 02:31:02;;;;;;;0.08;0.08;;;;;;;17.56;56.76;102821.66;5064620;28;20025;-84
2022/07/17 02:33:29;;;;;;;0.00;0.00;;;;;;;17.55;56.56;102827.91;5062834;28;20380;-83
2022/07/17 02:35:55;;;;;;;0.00;0.00;;;;;;;17.53;56.19;102819.00;5072050;28;20037;-83
2022/07/17 02:38:21;;;;;;;0.00;0.00;;;;;;;17.51;56.21;102818.13;5065997;28;20429;-82
2022/07/17 02:40:47;;;;;;;0.00;0.00;;;;;;;17.45;56.35;102814.66;5059142;28;20036;-85
2022/07/17 02:43:13;;;;;;;0.10;0.10;;;;;;;17.42;56.45;102825.44;5065006;28;20042;-85
2022/07/17 02:45:40;;;;;;;0.00;0.00;;;;;;;17.39;56.20;102841.56;5060491;28;20112;-84
2022/07/17 02:48:08;;;;;;;0.00;0.00;;;;;;;17.38;56.13;102839.78;5061272;28;20376;-84
2022/07/17 02:50:35;;;;;;;0.10;0.10;;;;;;;17.37;56.71;102832.69;5065003;28;20050;-84
2022/07/17 02:53:01;;;;;;;0.00;0.00;;;;;;;17.38;56.77;102829.06;5059746;28;20368;-82
2022/07/17 02:55:27;;;;;;;0.00;0.00;;;;;;;17.35;56.98;102839.84;5063554;28;20032;-83
2022/07/17 02:57:53;;;;;;;0.00;0.00;;;;;;;17.32;56.57;102833.66;5062632;28;20600;-82
2022/07/17 03:00:20;;;;;;;0.10;0.10;;;;;;;17.29;56.87;102847.97;5064983;28;20039;-83
2022/07/17 03:02:47;;;;;;;0.00;0.00;;;;;;;17.25;56.03;102854.31;5088459;23;20079;-78
2022/07/17 03:05:15;;;;;;;0.00;0.00;;;;;;;17.22;57.15;102860.59;5071412;28;21895;-78
2022/07/17 03:07:42;;;;;;;0.05;0.05;;;;;;;17.19;57.42;102855.28;5070754;28;20032;-78
2022/07/17 03:10:08;;;;;;;0.00;0.00;;;;;;;17.20;57.04;102859.72;5070442;28;20033;-78
2022/07/17 03:12:35;;;;;;;0.00;0.00;;;;;;;17.22;57.10;102862.38;5055815;28;20025;-78
2022/07/17 03:15:04;;;;;;;0.00;0.00;;;;;;;17.23;57.14;102858.78;5054948;28;20039;-78
2022/07/17 03:17:30;;;;;;;0.00;0.00;;;;;;;17.23;56.97;102856.13;5058400;28;20032;-79
2022/07/17 03:19:56;;;;;;;0.00;0.00;;;;;;;17.20;57.02;102856.19;5054186;28;20213;-79
2022/07/17 03:22:22;;;;;;;0.30;0.30;;;;;;;17.17;57.50;102845.50;5052292;28;20100;-78
2022/07/17 03:24:48;;;;;;;0.50;0.50;;;;;;;17.16;57.27;102849.09;5054850;28;20036;-78
2022/07/17 03:27:15;;;;;;;0.00;0.00;;;;;;;17.13;57.37;102850.91;5047834;28;20052;-78
2022/07/17 03:29:41;;;;;;;0.10;0.10;;;;;;;17.14;57.30;102852.66;5054189;28;20098;-79
2022/07/17 03:32:07;;;;;;;0.10;0.10;;;;;;;17.16;57.14;102846.41;5051797;28;20037;-78
2022/07/17 03:34:34;;;;;;;0.00;0.00;;;;;;;17.14;56.52;102851.78;5054843;28;20542;-78
2022/07/17 03:37:00;;;;;;;0.10;0.10;;;;;;;17.10;56.79;102856.31;5052991;28;20064;-79
2022/07/17 03:39:26;;;;;;;0.10;0.10;;;;;;;17.07;57.20;102853.69;5053780;28;20036;-79
2022/07/17 03:41:52;;;;;;;0.30;0.30;;;;;;;17.07;56.95;102850.09;5051681;28;20035;-79
2022/07/17 03:44:18;;;;;;;0.00;0.00;;;;;;;17.06;57.17;102854.59;5052523;28;20033;-78
2022/07/17 03:46:44;;;;;;;0.03;0.03;;;;;;;17.04;57.48;102853.72;5051748;28;20400;-79
2022/07/17 03:49:10;;;;;;;0.00;0.00;;;;;;;17.03;57.38;102853.75;5053454;28;20041;-79
2022/07/17 03:51:36;;;;;;;0.03;0.03;;;;;;;16.98;57.46;102857.41;5048641;28;20471;-79
2022/07/17 03:54:03;;;;;;;0.00;0.00;;;;;;;16.98;57.24;102853.81;5050321;28;20554;-79
2022/07/17 03:56:29;;;;;;;0.10;0.10;;;;;;;16.98;57.84;102856.50;5051817;28;20632;-79
2022/07/17 03:58:55;;;;;;;0.65;0.40;;;;;;;17.00;57.94;102862.72;5052975;28;20079;-79
2022/07/17 04:01:22;;;;;;;0.10;0.10;;;;;;;17.01;57.64;102856.47;5051676;28;20155;-78
2022/07/17 04:03:48;;;;;;;0.00;0.00;;;;;;;17.02;57.71;102851.97;5050706;28;20461;-79
2022/07/17 04:06:14;;;;;;;0.05;0.05;;;;;;;17.02;57.28;102850.16;5054471;28;20136;-79
2022/07/17 04:08:40;;;;;;;0.00;0.00;;;;;;;17.02;57.86;102851.97;5055219;28;20028;-79
2022/07/17 04:11:07;;;;;;;0.00;0.00;;;;;;;17.02;57.18;102862.69;5049247;28;20036;-79
2022/07/17 04:13:33;;;;;;;0.10;0.10;;;;;;;16.99;57.61;102855.59;5053843;28;20036;-79
2022/07/17 04:16:00;;;;;;;0.00;0.00;;;;;;;17.00;57.53;102853.78;5052256;28;20131;-79
2022/07/17 04:18:29;;;;;;;0.00;0.00;;;;;;;16.98;57.84;102862.75;5056294;28;20025;-79
2022/07/17 04:20:58;;;;;;;0.10;0.10;;;;;;;16.98;58.00;102859.16;5055096;28;20048;-78
2022/07/17 04:23:25;;;;;;;0.00;0.00;;;;;;;16.98;57.74;102867.19;5055253;28;20139;-78
2022/07/17 04:25:51;;;;;;;0.00;0.00;;;;;;;16.99;57.73;102874.34;5052129;28;20461;-79
2022/07/17 04:28:17;;;;;;;0.10;0.10;;;;;;;16.98;57.54;102872.56;5057372;28;20037;-78
2022/07/17 04:30:43;;;;;;;0.00;0.00;;;;;;;17.00;57.96;102872.53;5056596;28;20561;-79
2022/07/17 04:33:10;;;;;;;0.00;0.00;;;;;;;17.02;57.83;102868.91;5048067;28;20097;-79
2022/07/17 04:35:37;;;;;;;0.05;0.05;;;;;;;17.02;57.57;102874.28;5054963;28;20029;-79
2022/07/17 04:38:05;;;;;;;0.00;0.00;;;;;;;17.05;58.23;102871.56;5055212;28;20087;-79
2022/07/17 04:40:32;;;;;;;0.00;0.00;;;;;;;17.06;57.93;102881.38;5057414;28;20505;-79
2022/07/17 04:42:59;;;;;;;0.00;0.00;;;;;;;17.08;57.89;102870.63;5053673;28;20036;-78
2022/07/17 04:45:25;;;;;;;0.00;0.00;;;;;;;17.10;57.98;102867.03;5053309;28;20121;-79
2022/07/17 04:47:51;;;;;;;0.00;0.00;;;;;;;17.13;57.35;102861.63;5045372;28;20021;-79
2022/07/17 04:50:18;;;;;;;0.10;0.10;;;;;;;17.14;57.46;102868.72;5046026;28;20033;-78
2022/07/17 04:52:44;;;;;;;0.10;0.10;;;;;;;17.14;57.48;102858.03;5052200;28;20041;-78
2022/07/17 04:55:10;;;;;;;0.00;0.00;;;;;;;17.17;57.75;102848.19;5055670;28;20075;-78
2022/07/17 04:57:36;;;;;;;0.10;0.10;;;;;;;17.18;57.51;102849.94;5046025;28;20033;-78
2022/07/17 05:00:05;;;;;;;0.10;0.10;;;;;;;17.20;57.57;102845.47;5050056;28;20089;-78
2022/07/17 05:02:32;;;;;;;0.00;0.00;;;;;;;17.19;57.70;102849.06;5045751;28;20037;-79
2022/07/17 05:04:58;;;;;;;0.10;0.10;;;;;;;17.20;57.51;102853.50;5053215;28;20041;-79
2022/07/17 05:07:24;;;;;;;0.00;0.00;;;;;;;17.22;57.47;102859.69;5050820;28;20446;-78
2022/07/17 05:09:50;;;;;;;0.10;0.10;;;;;;;17.25;57.79;102859.66;5044200;28;20091;-79
2022/07/17 05:12:16;;;;;;;0.00;0.00;;;;;;;17.31;57.68;102846.19;5042846;28;20122;-78
2022/07/17 05:14:42;;;;;;;0.10;0.10;;;;;;;17.36;57.74;102843.41;5052690;28;20041;-78
2022/07/17 05:17:09;;;;;;;0.10;0.10;;;;;;;17.37;57.60;102843.41;5053321;28;20039;-78
2022/07/17 05:19:35;;;;;;;0.00;0.00;;;;;;;17.37;57.31;102859.47;5049583;28;20035;-79
2022/07/17 05:22:02;;;;;;;0.00;0.00;;;;;;;17.37;57.66;102864.84;5051755;28;20045;-78
2022/07/17 05:24:28;;;;;;;0.10;0.10;;;;;;;17.40;57.14;102859.41;5054820;28;20041;-78
2022/07/17 05:26:54;;;;;;;0.00;0.00;;;;;;;17.42;57.59;102849.56;5056515;28;20040;-79
2022/07/17 05:29:21;;;;;;;0.00;0.00;;;;;;;17.46;57.53;102853.94;5044482;28;20112;-79
2022/07/17 05:31:47;;;;;;;0.10;0.10;;;;;;;17.50;57.56;102853.91;5055221;28;20064;-78
2022/07/17 05:34:13;;;;;;;0.00;0.00;;;;;;;17.52;56.86;102858.34;5060506;28;20029;-79
2022/07/17 05:36:39;;;;;;;0.00;0.00;;;;;;;17.54;57.09;102855.63;5058374;28;20104;-79
2022/07/17 05:39:05;;;;;;;0.10;0.10;;;;;;;17.56;56.94;102860.03;5060328;28;20032;-79
2022/07/17 05:41:31;;;;;;;0.00;0.00;;;;;;;17.60;57.03;102863.56;5057217;28;20040;-79
2022/07/17 05:43:57;;;;;;;0.05;0.05;;;;;;;17.64;56.86;102873.31;5060092;28;20413;-78
2022/07/17 05:46:23;;;;;;;0.00;0.00;;;;;;;17.69;56.82;102871.41;5057442;28;20059;-78
2022/07/17 05:48:49;;;;;;;0.00;0.00;;;;;;;17.74;57.07;102871.34;5059173;28;20037;-78
2022/07/17 05:51:16;;;;;;;0.00;0.00;;;;;;;17.79;56.87;102867.69;5057160;28;20040;-78
2022/07/17 05:53:42;;;;;;;0.10;0.10;;;;;;;17.84;56.49;102866.72;5058010;28;20044;-79
2022/07/17 05:56:08;;;;;;;0.00;0.00;;;;;;;17.90;56.40;102867.47;5059785;28;20043;-79
2022/07/17 05:58:34;;;;;;;0.00;0.00;;;;;;;17.95;56.17;102862.94;5055009;28;20040;-79
2022/07/17 06:01:00;;;;;;;0.00;0.00;;;;;;;17.98;55.97;102870.06;5057408;28;20069;-78
2022/07/17 06:03:26;;;;;;;0.22;0.22;;;;;;;18.03;56.12;102876.22;5058689;28;20554;-79
2022/07/17 06:05:52;;;;;;;0.00;0.00;;;;;;;18.08;55.85;102873.44;5058705;28;20092;-79
2022/07/17 06:08:18;;;;;;;0.00;0.00;;;;;;;18.14;55.51;102878.69;5041550;28;20117;-78
2022/07/17 06:10:44;;;;;;;0.00;0.00;;;;;;;18.18;55.50;102879.50;5057437;28;20125;-78
2022/07/17 06:13:10;;;;;;;0.00;0.00;;;;;;;18.22;55.17;102875.88;5058040;28;20554;-78
2022/07/17 06:15:36;;;;;;;0.10;0.10;;;;;;;18.26;54.97;102882.94;5060093;28;20041;-78
2022/07/17 06:18:03;;;;;;;0.00;0.00;;;;;;;18.31;54.82;102885.53;5054531;28;20413;-78
2022/07/17 06:20:30;;;;;;;0.00;0.00;;;;;;;18.36;55.05;102900.63;5038441;28;20181;-79
2022/07/17 06:22:57;;;;;;;0.00;0.00;;;;;;;18.44;55.08;102903.13;5058358;28;20032;-79
2022/07/17 06:25:24;;;;;;;0.00;0.00;;;;;;;18.51;55.05;102907.47;5062052;28;20074;-78
2022/07/17 06:27:50;;;;;;;0.00;0.00;;;;;;;18.57;54.66;102907.34;5053485;28;20402;-79
2022/07/17 06:30:17;;;;;;;0.00;0.00;;;;;;;18.64;54.50;102901.84;5058512;28;20028;-79
2022/07/17 06:32:43;;;;;;;0.10;0.10;;;;;;;18.70;54.99;102907.09;5056504;28;20029;-79
2022/07/17 06:35:10;;;;;;;0.05;0.05;;;;;;;18.79;54.42;102900.63;5055983;28;20029;-79
2022/07/17 06:37:37;;;;;;;0.00;0.00;;;;;;;18.83;54.26;102905.00;5059345;28;20496;-79
2022/07/17 06:40:04;;;;;;;0.20;0.20;;;;;;;18.88;54.16;102908.50;5055394;28;20059;-79
2022/07/17 06:42:30;;;;;;;0.00;0.00;;;;;;;18.91;54.19;102909.31;5052225;28;20057;-79
2022/07/17 06:44:56;;;;;;;0.00;0.00;;;;;;;18.96;53.96;102909.22;5056499;28;20064;-79
2022/07/17 06:47:23;;;;;;;0.00;0.00;;;;;;;19.01;53.89;102914.50;5056918;28;20036;-78
2022/07/17 06:49:49;;;;;;;0.00;0.00;;;;;;;19.05;53.62;102917.09;5056432;28;20036;-79
2022/07/17 06:52:15;;;;;;;0.00;0.00;;;;;;;19.11;53.45;102923.25;5052479;28;20113;-79
2022/07/17 06:54:41;;;;;;;0.00;0.00;;;;;;;19.17;53.22;102921.28;5057422;28;20025;-79
2022/07/17 06:57:07;;;;;;;0.03;0.03;;;;;;;19.22;53.06;102915.81;5057183;28;20032;-78
2022/07/17 06:59:34;;;;;;;0.00;0.00;;;;;;;19.27;52.99;102919.28;5058908;28;20131;-78
2022/07/17 07:02:00;;;;;;;0.00;0.00;;;;;;;19.33;52.88;102919.13;5057056;28;20033;-79
2022/07/17 07:04:26;;;;;;;0.00;0.00;;;;;;;19.38;52.77;102914.53;5057080;28;20028;-79
2022/07/17 07:06:52;;;;;;;0.80;0.80;;;;;;;19.43;52.63;102921.59;5056569;28;20094;-79
2022/07/17 07:09:18;;;;;;;0.00;0.00;;;;;;;19.48;52.18;102922.38;5056979;28;20111;-78
2022/07/17 07:11:45;;;;;;;0.00;0.00;;;;;;;19.54;52.13;102924.91;5055205;28;20040;-79
2022/07/17 07:14:11;;;;;;;0.10;0.10;;;;;;;19.59;51.83;102931.06;5055880;28;20022;-78
2022/07/17 07:16:37;;;;;;;0.10;0.10;;;;;;;19.63;51.32;102927.38;5055731;28;20025;-79
2022/07/17 07:19:03;;;;;;;0.00;0.00;;;;;;;19.73;51.77;102930.72;5055800;28;20086;-79
2022/07/17 07:21:30;;;;;;;0.00;0.00;;;;;;;19.79;51.61;102930.56;5050475;28;20103;-79
2022/07/17 07:23:56;;;;;;;0.00;0.00;;;;;;;19.87;51.35;102925.00;5049201;28;20029;-78
2022/07/17 07:26:22;;;;;;;0.98;0.98;;;;;;;19.95;50.96;102931.09;5051099;28;20037;-79
2022/07/17 07:28:48;;;;;;;0.05;0.05;;;;;;;20.03;51.29;102930.88;5052689;28;20098;-78
2022/07/17 07:31:16;;;;;;;0.10;0.10;;;;;;;20.07;51.47;102924.47;5058867;28;20030;-79
2022/07/17 07:33:44;;;;;;;0.00;0.00;;;;;;;20.18;50.58;102916.13;5048726;28;20477;-78
2022/07/17 07:36:10;;;;;;;0.00;0.00;;;;;;;20.26;50.93;102919.50;5048323;28;20402;-78
2022/07/17 07:38:37;;;;;;;0.00;0.00;;;;;;;20.30;49.69;102917.56;5048653;28;20041;-79
2022/07/17 07:41:03;;;;;;;0.00;0.00;;;;;;;20.37;50.23;102913.78;5055001;28;20425;-79
2022/07/17 07:43:30;;;;;;;0.00;0.00;;;;;;;20.46;50.32;102915.31;5051075;28;20045;-79
2022/07/17 07:45:56;;;;;;;0.00;0.00;;;;;;;20.57;50.30;102912.34;5052334;28;20076;-79
2022/07/17 07:48:22;;;;;;;0.00;0.00;;;;;;;20.66;50.21;102906.66;5050374;28;20056;-79
2022/07/17 07:50:48;;;;;;;0.00;0.00;;;;;;;20.77;49.96;102906.38;5048403;28;20033;-79
2022/07/17 07:53:15;;;;;;;0.03;0.03;;;;;;;20.87;49.21;102910.56;5051306;28;20021;-78
2022/07/17 07:55:41;;;;;;;0.00;0.00;;;;;;;20.94;48.83;102909.44;5047311;28;20393;-78
2022/07/17 07:58:10;;;;;;;0.00;0.00;;;;;;;21.07;49.21;102915.34;5051196;28;20033;-77
2022/07/17 08:00:38;;;;;;;0.00;0.00;;;;;;;21.13;48.70;102907.06;5048977;28;20106;-78
2022/07/17 08:03:04;;;;;;;0.00;0.00;;;;;;;21.16;48.25;102908.78;5047379;28;20043;-78
2022/07/17 08:05:31;;;;;;;0.00;0.00;;;;;;;21.23;47.89;102906.75;5040853;28;20444;-77
2022/07/17 08:07:57;;;;;;;0.00;0.00;;;;;;;21.28;48.15;102911.09;5045576;28;20029;-77
2022/07/17 08:10:23;;;;;;;0.00;0.00;;;;;;;21.32;48.06;102917.22;5042216;28;20041;-77
2022/07/17 08:12:50;;;;;;;0.00;0.00;;;;;;;21.33;47.24;102916.31;5045483;28;20039;-77
2022/07/17 08:15:18;;;;;;;0.22;0.22;;;;;;;21.35;47.52;102906.34;5041358;28;20463;-77
2022/07/17 08:17:45;;;;;;;0.10;0.10;;;;;;;21.39;47.61;102912.53;5040617;28;20025;-77
2022/07/17 08:20:13;;;;;;;0.00;0.00;;;;;;;21.42;47.56;102902.53;5051882;28;20025;-77
2022/07/17 08:22:39;;;;;;;0.00;0.00;;;;;;;21.55;47.89;102897.59;5043071;28;20037;-77
2022/07/17 08:25:06;;;;;;;0.00;0.00;;;;;;;;;;5045029;28;20167;-78
2022/07/17 08:27:36;;;;;;;1.55;1.25;;;;;;;21.79;47.54;102892.34;5049241;28;20123;-78
2022/07/17 08:30:04;;;;;;;0.00;0.00;;;;;;;21.87;47.58;102894.75;5048098;28;20365;-77
2022/07/17 08:32:30;;;;;;;0.00;0.00;;;;;;;21.91;48.02;102891.91;5047361;28;20029;-78
2022/07/17 08:34:57;;;;;;;0.00;0.00;;;;;;;22.04;47.18;102897.72;5051809;28;20151;-78
2022/07/17 08:37:24;;;;;;;0.32;0.13;;;;;;;22.12;47.27;102886.69;5050847;28;20035;-78
2022/07/17 08:39:51;;;;;;;0.10;0.10;;;;;;;22.15;46.46;102889.25;5053112;28;20029;-78
2022/07/17 08:42:17;;;;;;;0.00;0.00;;;;;;;22.26;46.70;102884.34;5051101;28;20085;-78
2022/07/17 08:44:45;;;;;;;0.10;0.10;;;;;;;22.32;46.21;102880.53;5054546;28;20082;-78
2022/07/17 08:47:12;;;;;;;0.50;0.50;;;;;;;22.40;46.68;102877.56;5054506;28;20088;-77
2022/07/17 08:49:48;;;;;;;0.00;0.00;;;;;;;22.55;46.01;102879.69;5053276;28;20400;-83
2022/07/17 08:52:15;;;;;;;0.25;0.25;;;;;;;22.61;46.62;102879.44;5055643;28;20036;-83
2022/07/17 08:54:41;;;;;;;0.03;0.03;;;;;;;22.73;45.27;102878.09;5051601;28;20051;-77
2022/07/17 08:57:09;;;;;;;0.00;0.00;;;;;;;22.85;45.21;102874.00;5054141;28;20029;-78
2022/07/17 08:59:35;;;;;;;0.00;0.00;;;;;;;22.93;44.72;102877.31;5057597;28;20112;-78
2022/07/17 09:02:03;;;;;;;0.00;0.00;;;;;;;22.97;44.92;102877.16;5094830;22;20044;-82
2022/07/17 09:04:29;;;;;;;0.00;0.00;;;;;;;23.00;44.28;102883.34;5079655;28;20075;-82
2022/07/17 09:07:01;;;;;;;0.00;0.00;;;;;;;23.12;43.29;102889.22;5080144;28;20115;-84
2022/07/17 09:09:28;;;;;;;0.00;0.00;;;;;;;23.10;43.63;102897.38;5081536;28;20034;-84
2022/07/17 09:11:55;;;;;;;0.00;0.00;;;;;;;23.21;43.69;102892.44;5075237;28;20036;-83
2022/07/17 09:14:22;;;;;;;0.10;0.10;;;;;;;23.30;44.23;102887.59;5065267;28;20020;-84
2022/07/17 09:16:54;;;;;;;0.00;0.00;;;;;;;23.40;44.09;102894.38;5067070;28;20033;-83
2022/07/17 09:19:28;;;;;;;0.00;0.00;;;;;;;23.45;41.59;102886.94;5066939;28;20036;-82
2022/07/17 09:22:12;;;;;;;0.00;0.00;;;;;;;23.58;43.91;102882.78;5074423;28;20040;-83
2022/07/17 09:32:40;;;;;;;0.08;0.08;;;;;;;23.88;42.36;102887.78;5102761;27;20435;-80
2022/07/17 09:35:09;;;;;;;0.00;0.00;;;;;;;23.95;41.48;102884.84;5080488;28;20058;-80
2022/07/17 09:37:36;;;;;;;0.00;0.00;;;;;;;24.07;42.41;102884.31;5082202;28;20024;-80
2022/07/17 09:40:10;;;;;;;0.00;0.00;;;;;;;24.19;42.73;102874.75;5080260;28;20060;-81
2022/07/17 09:42:36;;;;;;;0.10;0.10;;;;;;;24.23;42.25;102873.66;5083780;28;20038;-80
2022/07/17 09:45:08;;;;;;;0.57;0.57;;;;;;;24.38;42.43;102872.06;5077904;28;20111;-82
2022/07/17 09:47:36;;;;;;;;;;;;;;;24.57;41.93;102876.63;5081691;28;20024;-80
2022/07/17 09:50:04;;;;;;;0.00;0.00;;;;;;;24.55;41.87;102874.00;5084320;28;19912;-81
2022/07/17 09:52:34;;;;;;;0.20;0.20;;;;;;;24.59;39.56;102878.31;5082253;28;20028;-80
2022/07/17 09:55:01;;;;;;;0.10;0.10;;;;;;;24.68;40.51;102874.31;5081338;28;20519;-80
2022/07/17 09:57:31;;;;;;;0.10;0.10;;;;;;;24.74;41.74;102870.44;5082930;28;20066;-81
2022/07/17 10:00:02;;;;;;;0.08;0.08;;;;;;;24.87;40.86;102869.78;5082407;28;20039;-81
2022/07/17 10:02:28;;;;;;;0.10;0.10;;;;;;;24.99;41.09;102870.13;5079651;28;20036;-81
2022/07/17 10:04:55;;;;;;;0.10;0.10;;;;;;;25.08;41.36;102872.38;5081243;28;20515;-81
2022/07/17 10:07:23;;;;;;;0.00;0.00;;;;;;;25.21;40.14;102872.66;5083669;28;20028;-82
2022/07/17 10:09:49;;;;;;;0.00;0.00;;;;;;;25.32;40.51;102875.72;5097177;28;20024;-83
2022/07/17 10:12:17;;;;;;;1.23;0.95;;;;;;;25.42;40.91;102865.31;5095260;28;20249;-81
2022/07/17 10:14:47;;;;;;;0.00;0.00;;;;;;;25.55;40.36;102864.66;5088692;28;20040;-82
2022/07/17 10:17:19;;;;;;;0.00;0.00;;;;;;;25.47;40.81;102865.03;5088231;28;20040;-80
2022/07/17 10:19:50;;;;;;;0.10;0.10;;;;;;;25.51;39.76;102867.53;5090391;28;20040;-82
2022/07/17 10:22:17;;;;;;;0.00;0.00;;;;;;;25.56;39.27;102860.97;5093407;28;20021;-82
2022/07/17 10:24:49;;;;;;;0.00;0.00;;;;;;;25.64;40.00;102864.19;5095683;28;20040;-84
2022/07/17 10:27:31;;;;;;;0.00;0.00;;;;;;;25.77;39.78;102859.88;5086335;28;20029;-83
2022/07/17 10:32:39;;;;;;;0.22;0.22;;;;;;;25.82;39.18;102867.75;5079145;27;1406233;-82
2022/07/17 10:35:09;;;;;;;0.60;0.60;;;;;;;25.87;39.76;102867.50;5108604;28;20038;-83
2022/07/17 10:37:44;;;;;;;0.00;0.00;;;;;;;25.94;40.19;102874.38;5114810;28;20060;-83
2022/07/17 10:40:28;;;;;;;0.10;0.10;;;;;;;26.02;39.18;102877.56;5109128;28;20515;-83
2022/07/17 10:45:39;;;;;;;0.00;0.00;;;;;;;26.16;38.97;102872.28;5103554;27;1269857;-83
2022/07/17 10:48:11;;;;;;;0.00;0.00;;;;;;;26.24;36.23;102873.72;5117635;28;20027;-84
2022/07/17 10:53:32;;;;;;;0.20;0.20;;;;;;;26.37;37.98;102871.19;5072364;28;20362;-85
2022/07/17 10:56:15;;;;;;;6.93;0.98;;;;;;;26.49;36.63;102873.22;5067810;28;20421;-84
2022/07/17 10:58:45;;;;;;;0.10;0.10;;;;;;;26.51;37.07;102884.03;5056532;28;20040;-81
2022/07/17 11:01:16;;;;;;;0.00;0.00;;;;;;;26.58;36.20;102878.16;5047822;28;20041;-83
2022/07/17 11:06:46;;;;;;;0.05;0.05;;;;;;;26.71;37.26;102877.47;5003539;27;4184700;-84
2022/07/17 11:09:13;;;;;;;0.10;0.10;;;;;;;26.67;37.79;102879.50;5131219;28;20077;-85
2022/07/17 11:11:42;;;;;;;0.00;0.00;;;;;;;26.77;37.94;102877.16;5133542;27;20034;-82
2022/07/17 11:16:59;;;;;;;0.03;0.03;;;;;;;26.91;38.09;102868.22;5083188;27;1586528;-83
2022/07/17 11:19:30;;;;;;;0.17;0.17;;;;;;;26.98;37.13;102885.94;5115915;28;20061;-83
2022/07/17 11:21:58;;;;;;;0.63;0.63;;;;;;;27.06;37.96;102880.91;5114305;28;20055;-83
2022/07/17 11:24:26;;;;;;;0.00;0.00;;;;;;;27.13;34.85;102879.59;5107869;28;20020;-83
2022/07/17 11:26:52;;;;;;;0.05;0.05;;;;;;;27.24;36.65;102872.63;5114036;28;20027;-82
2022/07/17 11:29:18;;;;;;;0.00;0.00;;;;;;;27.34;36.67;102865.69;5114305;28;20069;-83
2022/07/17 11:31:55;;;;;;;0.30;0.30;;;;;;;27.48;37.29;102861.28;5106513;28;20443;-83
2022/07/17 11:34:25;;;;;;;0.05;0.05;;;;;;;27.53;35.01;102848.28;5113915;28;20074;-82
2022/07/17 11:36:58;;;;;;;0.00;0.00;;;;;;;27.57;35.83;102858.00;5114562;28;20046;-81
2022/07/17 11:39:24;;;;;;;0.00;0.00;;;;;;;27.67;36.22;102856.47;5109948;28;20039;-82
2022/07/17 11:41:53;;;;;;;0.03;0.03;;;;;;;27.74;35.48;102849.69;5107268;28;20124;-82
2022/07/17 11:44:22;;;;;;;0.00;0.00;;;;;;;27.84;37.97;102868.16;5119469;28;20016;-82
2022/07/17 11:46:50;;;;;;;0.10;0.10;;;;;;;27.90;35.64;102862.34;5104052;28;20056;-80
2022/07/17 11:49:34;;;;;;;0.03;0.03;;;;;;;28.07;35.45;102856.75;5113277;28;20024;-82